sensor_id;sensor_type;location;lat;lon;timestamp;pressure;altitude;pressure_sealevel;temperature;humidity
57568;BME280;43403;51.948;5.922;2023-07-20T00:01:52;101333.41;;;18.99;100.00
57568;BME280;43403;51.948;5.922;2023-07-20T00:04:18;101338.28;;;18.95;100.00
57568;BME280;43403;51.948;5.922;2023-07-20T00:06:45;101334.53;;;18.89;100.00
57568;BME280;43403;51.948;5.922;2023-07-20T00:09:12;101339.13;;;18.95;100.00
57568;BME280;43403;51.948;5.922;2023-07-20T00:11:38;101334.13;;;18.86;100.00
57568;BME280;43403;51.948;5.922;2023-07-20T00:14:06;101336.22;;;18.75;100.00
57568;BME280;43403;51.948;5.922;2023-07-20T00:16:33;101332.72;;;18.75;100.00
57568;BME280;43403;51.948;5.922;2023-07-20T00:18:59;101338.81;;;18.69;100.00
57568;BME280;43403;51.948;5.922;2023-07-20T00:21:26;101336.25;;;18.61;100.00
57568;BME280;43403;51.948;5.922;2023-07-20T00:23:52;101335.81;;;18.57;100.00
57568;BME280;43403;51.948;5.922;2023-07-20T00:26:19;101341.31;;;18.55;100.00
57568;BME280;43403;51.948;5.922;2023-07-20T00:28:49;101336.75;;;18.49;100.00
57568;BME280;43403;51.948;5.922;2023-07-20T00:31:16;101336.84;;;18.41;100.00
57568;BME280;43403;51.948;5.922;2023-07-20T00:33:42;101329.88;;;18.40;100.00
57568;BME280;43403;51.948;5.922;2023-07-20T00:36:09;101331.06;;;18.37;100.00
57568;BME280;43403;51.948;5.922;2023-07-20T00:38:35;101331.44;;;18.34;100.00
57568;BME280;43403;51.948;5.922;2023-07-20T00:41:02;101331.91;;;18.38;100.00
57568;BME280;43403;51.948;5.922;2023-07-20T00:43:28;101336.22;;;18.39;100.00
57568;BME280;43403;51.948;5.922;2023-07-20T00:45:55;101346.09;;;18.45;100.00
57568;BME280;43403;51.948;5.922;2023-07-20T00:48:22;101340.38;;;18.48;100.00
57568;BME280;43403;51.948;5.922;2023-07-20T00:50:49;101334.44;;;18.46;100.00
57568;BME280;43403;51.948;5.922;2023-07-20T00:53:16;101335.19;;;18.40;100.00
57568;BME280;43403;51.948;5.922;2023-07-20T00:55:43;101331.44;;;18.34;100.00
57568;BME280;43403;51.948;5.922;2023-07-20T00:58:10;101329.97;;;18.32;100.00
57568;BME280;43403;51.948;5.922;2023-07-20T01:00:37;101329.69;;;18.27;100.00
57568;BME280;43403;51.948;5.922;2023-07-20T01:03:04;101327.25;;;18.25;100.00
57568;BME280;43403;51.948;5.922;2023-07-20T01:06:14;101325.78;;;18.23;100.00
57568;BME280;43403;51.948;5.922;2023-07-20T01:08:57;101331.81;;;18.16;100.00
57568;BME280;43403;51.948;5.922;2023-07-20T01:11:43;101327.63;;;18.07;100.00
57568;BME280;43403;51.948;5.922;2023-07-20T01:14:16;101332.03;;;18.00;100.00
57568;BME280;43403;51.948;5.922;2023-07-20T01:16:43;101334.94;;;18.05;100.00
57568;BME280;43403;51.948;5.922;2023-07-20T01:19:09;101338.44;;;18.06;100.00
57568;BME280;43403;51.948;5.922;2023-07-20T01:30:05;101351.78;;;18.12;100.00
57568;BME280;43403;51.948;5.922;2023-07-20T01:32:34;101345.38;;;18.07;100.00
57568;BME280;43403;51.948;5.922;2023-07-20T01:35:05;101348.41;;;18.04;100.00
57568;BME280;43403;51.948;5.922;2023-07-20T01:37:32;101353.25;;;18.00;100.00
57568;BME280;43403;51.948;5.922;2023-07-20T01:40:00;101350.78;;;17.98;100.00
57568;BME280;43403;51.948;5.922;2023-07-20T01:42:27;101351.81;;;17.97;100.00
57568;BME280;43403;51.948;5.922;2023-07-20T01:44:54;101349.50;;;17.94;100.00
57568;BME280;43403;51.948;5.922;2023-07-20T01:47:20;101351.50;;;17.92;100.00
57568;BME280;43403;51.948;5.922;2023-07-20T01:49:47;101347.66;;;17.95;100.00
57568;BME280;43403;51.948;5.922;2023-07-20T01:52:13;101348.69;;;17.94;100.00
57568;BME280;43403;51.948;5.922;2023-07-20T01:54:41;101341.88;;;17.91;100.00
57568;BME280;43403;51.948;5.922;2023-07-20T01:57:07;101352.50;;;17.91;100.00
57568;BME280;43403;51.948;5.922;2023-07-20T01:59:34;101354.72;;;17.88;100.00
57568;BME280;43403;51.948;5.922;2023-07-20T02:02:01;101346.56;;;17.89;100.00
57568;BME280;43403;51.948;5.922;2023-07-20T02:04:27;101342.09;;;17.90;100.00
57568;BME280;43403;51.948;5.922;2023-07-20T02:06:53;101342.72;;;17.92;100.00
57568;BME280;43403;51.948;5.922;2023-07-20T02:09:20;101346.38;;;17.91;100.00
57568;BME280;43403;51.948;5.922;2023-07-20T02:11:46;101347.19;;;17.91;100.00
57568;BME280;43403;51.948;5.922;2023-07-20T02:14:13;101349.19;;;17.89;100.00
57568;BME280;43403;51.948;5.922;2023-07-20T02:16:39;101357.53;;;17.86;100.00
57568;BME280;43403;51.948;5.922;2023-07-20T02:19:06;101353.22;;;17.85;100.00
57568;BME280;43403;51.948;5.922;2023-07-20T02:21:33;101356.75;;;17.77;100.00
57568;BME280;43403;51.948;5.922;2023-07-20T02:24:00;101356.50;;;17.72;100.00
57568;BME280;43403;51.948;5.922;2023-07-20T02:26:26;101359.03;;;17.66;100.00
57568;BME280;43403;51.948;5.922;2023-07-20T02:28:53;101356.38;;;17.66;100.00
57568;BME280;43403;51.948;5.922;2023-07-20T02:31:20;101354.16;;;17.54;100.00
57568;BME280;43403;51.948;5.922;2023-07-20T02:33:46;101359.66;;;17.53;100.00
57568;BME280;43403;51.948;5.922;2023-07-20T02:36:12;101362.13;;;17.54;100.00
57568;BME280;43403;51.948;5.922;2023-07-20T02:38:39;101355.34;;;17.52;100.00
57568;BME280;43403;51.948;5.922;2023-07-20T02:41:06;101361.84;;;17.49;100.00
57568;BME280;43403;51.948;5.922;2023-07-20T02:43:32;101356.22;;;17.44;100.00
57568;BME280;43403;51.948;5.922;2023-07-20T02:45:58;101361.09;;;17.41;100.00
57568;BME280;43403;51.948;5.922;2023-07-20T02:48:25;101364.25;;;17.36;100.00
57568;BME280;43403;51.948;5.922;2023-07-20T02:50:51;101354.66;;;17.35;100.00
57568;BME280;43403;51.948;5.922;2023-07-20T02:53:18;101368.44;;;17.30;100.00
57568;BME280;43403;51.948;5.922;2023-07-20T02:55:44;101368.16;;;17.25;100.00
57568;BME280;43403;51.948;5.922;2023-07-20T02:58:11;101370.50;;;17.20;100.00
57568;BME280;43403;51.948;5.922;2023-07-20T03:00:37;101377.50;;;17.13;100.00
57568;BME280;43403;51.948;5.922;2023-07-20T03:03:04;101377.22;;;17.08;100.00
57568;BME280;43403;51.948;5.922;2023-07-20T03:05:30;101386.31;;;17.05;100.00
57568;BME280;43403;51.948;5.922;2023-07-20T03:07:57;101388.31;;;17.03;100.00
57568;BME280;43403;51.948;5.922;2023-07-20T03:10:25;101382.91;;;16.96;100.00
57568;BME280;43403;51.948;5.922;2023-07-20T03:12:51;101387.22;;;16.97;100.00
57568;BME280;43403;51.948;5.922;2023-07-20T03:15:18;101394.34;;;16.97;100.00
57568;BME280;43403;51.948;5.922;2023-07-20T03:17:45;101398.50;;;16.91;100.00
57568;BME280;43403;51.948;5.922;2023-07-20T03:20:11;101402.00;;;16.92;100.00
57568;BME280;43403;51.948;5.922;2023-07-20T03:22:39;101398.22;;;16.86;100.00
57568;BME280;43403;51.948;5.922;2023-07-20T03:25:05;101402.50;;;16.79;100.00
57568;BME280;43403;51.948;5.922;2023-07-20T03:27:32;101407.00;;;16.78;100.00
57568;BME280;43403;51.948;5.922;2023-07-20T03:29:58;101401.06;;;16.76;100.00
57568;BME280;43403;51.948;5.922;2023-07-20T03:32:25;101397.44;;;16.69;100.00
57568;BME280;43403;51.948;5.922;2023-07-20T03:34:51;101398.72;;;16.73;100.00
57568;BME280;43403;51.948;5.922;2023-07-20T03:37:18;101398.59;;;16.67;100.00
57568;BME280;43403;51.948;5.922;2023-07-20T03:39:44;101402.59;;;16.63;100.00
57568;BME280;43403;51.948;5.922;2023-07-20T03:42:11;101397.78;;;16.66;100.00
57568;BME280;43403;51.948;5.922;2023-07-20T03:44:37;101394.66;;;16.63;100.00
57568;BME280;43403;51.948;5.922;2023-07-20T03:47:04;101402.28;;;16.57;100.00
57568;BME280;43403;51.948;5.922;2023-07-20T03:49:31;101394.00;;;16.52;100.00
57568;BME280;43403;51.948;5.922;2023-07-20T03:51:57;101399.84;;;16.48;100.00
57568;BME280;43403;51.948;5.922;2023-07-20T03:54:24;101401.34;;;16.42;100.00
57568;BME280;43403;51.948;5.922;2023-07-20T03:56:50;101400.34;;;16.43;100.00
57568;BME280;43403;51.948;5.922;2023-07-20T03:59:17;101397.88;;;16.41;100.00
57568;BME280;43403;51.948;5.922;2023-07-20T04:01:43;101405.66;;;16.43;100.00
57568;BME280;43403;51.948;5.922;2023-07-20T04:04:10;101398.03;;;16.40;100.00
57568;BME280;43403;51.948;5.922;2023-07-20T04:06:37;101409.63;;;16.39;100.00
57568;BME280;43403;51.948;5.922;2023-07-20T04:09:04;101409.16;;;16.35;100.00
57568;BME280;43403;51.948;5.922;2023-07-20T04:11:33;101409.47;;;16.32;100.00
57568;BME280;43403;51.948;5.922;2023-07-20T04:13:59;101418.59;;;16.30;100.00
57568;BME280;43403;51.948;5.922;2023-07-20T04:16:26;101413.47;;;16.28;100.00
57568;BME280;43403;51.948;5.922;2023-07-20T04:18:56;101419.56;;;16.29;100.00
57568;BME280;43403;51.948;5.922;2023-07-20T04:21:25;101416.63;;;16.24;100.00
57568;BME280;43403;51.948;5.922;2023-07-20T04:23:52;101415.31;;;16.19;100.00
57568;BME280;43403;51.948;5.922;2023-07-20T04:26:18;101411.34;;;16.15;100.00
57568;BME280;43403;51.948;5.922;2023-07-20T04:28:45;101416.66;;;16.15;100.00
57568;BME280;43403;51.948;5.922;2023-07-20T04:31:13;101420.59;;;16.19;100.00
57568;BME280;43403;51.948;5.922;2023-07-20T04:33:40;101422.09;;;16.22;100.00
57568;BME280;43403;51.948;5.922;2023-07-20T04:36:07;101430.19;;;16.20;100.00
57568;BME280;43403;51.948;5.922;2023-07-20T04:38:34;101431.34;;;16.18;100.00
57568;BME280;43403;51.948;5.922;2023-07-20T04:41:00;101428.88;;;16.16;100.00
57568;BME280;43403;51.948;5.922;2023-07-20T04:43:29;101425.56;;;16.14;100.00
57568;BME280;43403;51.948;5.922;2023-07-20T04:45:55;101421.28;;;16.13;100.00
57568;BME280;43403;51.948;5.922;2023-07-20T04:48:22;101437.47;;;16.18;100.00
57568;BME280;43403;51.948;5.922;2023-07-20T04:50:48;101440.13;;;16.18;100.00
57568;BME280;43403;51.948;5.922;2023-07-20T04:53:15;101434.81;;;16.18;100.00
57568;BME280;43403;51.948;5.922;2023-07-20T04:55:48;101438.78;;;16.23;100.00
57568;BME280;43403;51.948;5.922;2023-07-20T04:58:21;101442.94;;;16.25;100.00
57568;BME280;43403;51.948;5.922;2023-07-20T05:00:48;101444.41;;;16.28;100.00
57568;BME280;43403;51.948;5.922;2023-07-20T05:03:15;101438.63;;;16.24;100.00
57568;BME280;43403;51.948;5.922;2023-07-20T05:05:42;101436.47;;;16.28;100.00
57568;BME280;43403;51.948;5.922;2023-07-20T05:08:08;101436.31;;;16.29;100.00
57568;BME280;43403;51.948;5.922;2023-07-20T05:10:35;101437.78;;;16.32;100.00
57568;BME280;43403;51.948;5.922;2023-07-20T05:13:01;101436.31;;;16.29;100.00
57568;BME280;43403;51.948;5.922;2023-07-20T05:15:28;101434.31;;;16.31;100.00
57568;BME280;43403;51.948;5.922;2023-07-20T05:17:55;101441.06;;;16.34;100.00
57568;BME280;43403;51.948;5.922;2023-07-20T05:20:21;101437.44;;;16.35;100.00
57568;BME280;43403;51.948;5.922;2023-07-20T05:22:48;101448.50;;;16.38;100.00
57568;BME280;43403;51.948;5.922;2023-07-20T05:25:15;101443.03;;;16.40;100.00
57568;BME280;43403;51.948;5.922;2023-07-20T05:27:44;101442.56;;;16.36;100.00
57568;BME280;43403;51.948;5.922;2023-07-20T05:30:12;101443.69;;;16.42;100.00
57568;BME280;43403;51.948;5.922;2023-07-20T05:32:38;101444.19;;;16.46;100.00
57568;BME280;43403;51.948;5.922;2023-07-20T05:35:05;101449.97;;;16.49;100.00
57568;BME280;43403;51.948;5.922;2023-07-20T05:37:32;101451.44;;;16.52;100.00
57568;BME280;43403;51.948;5.922;2023-07-20T05:39:58;101461.56;;;16.56;100.00
57568;BME280;43403;51.948;5.922;2023-07-20T05:42:25;101456.59;;;16.53;100.00
57568;BME280;43403;51.948;5.922;2023-07-20T05:44:52;101460.88;;;16.63;100.00
57568;BME280;43403;51.948;5.922;2023-07-20T05:47:19;101460.72;;;16.64;100.00
57568;BME280;43403;51.948;5.922;2023-07-20T05:49:46;101462.84;;;16.69;100.00
57568;BME280;43403;51.948;5.922;2023-07-20T05:52:13;101471.56;;;16.77;100.00
57568;BME280;43403;51.948;5.922;2023-07-20T05:54:39;101460.31;;;16.75;100.00
57568;BME280;43403;51.948;5.922;2023-07-20T05:57:06;101464.47;;;16.78;100.00
57568;BME280;43403;51.948;5.922;2023-07-20T05:59:32;101468.09;;;16.77;100.00
57568;BME280;43403;51.948;5.922;2023-07-20T06:01:59;101462.31;;;16.82;100.00
57568;BME280;43403;51.948;5.922;2023-07-20T06:04:25;101450.19;;;16.79;100.00
57568;BME280;43403;51.948;5.922;2023-07-20T06:06:52;101464.78;;;16.83;100.00
57568;BME280;43403;51.948;5.922;2023-07-20T06:09:18;101468.75;;;16.79;100.00
57568;BME280;43403;51.948;5.922;2023-07-20T06:11:45;101470.91;;;16.84;100.00
57568;BME280;43403;51.948;5.922;2023-07-20T06:14:11;101471.53;;;16.94;100.00
57568;BME280;43403;51.948;5.922;2023-07-20T06:16:38;101472.69;;;16.99;100.00
57568;BME280;43403;51.948;5.922;2023-07-20T06:19:05;101472.81;;;17.06;100.00
57568;BME280;43403;51.948;5.922;2023-07-20T06:21:31;101472.63;;;17.08;100.00
57568;BME280;43403;51.948;5.922;2023-07-20T06:23:58;101467.50;;;17.06;100.00
57568;BME280;43403;51.948;5.922;2023-07-20T06:26:25;101476.44;;;17.13;100.00
57568;BME280;43403;51.948;5.922;2023-07-20T06:28:51;101471.47;;;17.10;100.00
57568;BME280;43403;51.948;5.922;2023-07-20T06:31:18;101468.28;;;17.15;100.00
57568;BME280;43403;51.948;5.922;2023-07-20T06:33:44;101474.22;;;17.17;100.00
57568;BME280;43403;51.948;5.922;2023-07-20T06:36:11;101483.03;;;17.17;100.00
57568;BME280;43403;51.948;5.922;2023-07-20T06:38:38;101484.53;;;17.12;100.00
57568;BME280;43403;51.948;5.922;2023-07-20T06:41:05;101482.66;;;17.20;100.00
57568;BME280;43403;51.948;5.922;2023-07-20T06:43:34;101484.34;;;17.22;100.00
57568;BME280;43403;51.948;5.922;2023-07-20T06:46:04;101479.84;;;17.22;100.00
57568;BME280;43403;51.948;5.922;2023-07-20T06:48:31;101488.63;;;17.23;98.70
57568;BME280;43403;51.948;5.922;2023-07-20T06:50:57;101485.63;;;17.26;98.93
57568;BME280;43403;51.948;5.922;2023-07-20T06:53:24;101486.28;;;17.28;99.07
57568;BME280;43403;51.948;5.922;2023-07-20T06:55:50;101487.91;;;17.29;95.82
57568;BME280;43403;51.948;5.922;2023-07-20T06:58:17;101487.75;;;17.30;95.80
57568;BME280;43403;51.948;5.922;2023-07-20T07:00:44;101482.75;;;17.35;95.28
57568;BME280;43403;51.948;5.922;2023-07-20T07:03:11;101481.56;;;17.38;93.39
57568;BME280;43403;51.948;5.922;2023-07-20T07:05:37;101492.13;;;17.46;94.54
57568;BME280;43403;51.948;5.922;2023-07-20T07:08:05;101492.78;;;17.48;93.98
57568;BME280;43403;51.948;5.922;2023-07-20T07:10:32;101486.16;;;17.52;96.30
57568;BME280;43403;51.948;5.922;2023-07-20T07:12:58;101489.38;;;17.63;95.34
57568;BME280;43403;51.948;5.922;2023-07-20T07:15:27;101494.78;;;17.69;93.28
57568;BME280;43403;51.948;5.922;2023-07-20T07:17:54;101491.44;;;17.75;90.65
57568;BME280;43403;51.948;5.922;2023-07-20T07:20:21;101495.19;;;17.81;91.60
57568;BME280;43403;51.948;5.922;2023-07-20T07:22:50;101502.47;;;17.87;93.41
57568;BME280;43403;51.948;5.922;2023-07-20T07:25:17;101498.69;;;17.82;89.35
57568;BME280;43403;51.948;5.922;2023-07-20T07:27:49;101500.47;;;17.89;91.37
57568;BME280;43403;51.948;5.922;2023-07-20T07:30:15;101496.00;;;17.90;88.90
57568;BME280;43403;51.948;5.922;2023-07-20T07:32:42;101492.06;;;17.86;87.01
57568;BME280;43403;51.948;5.922;2023-07-20T07:35:08;101498.28;;;17.93;89.42
57568;BME280;43403;51.948;5.922;2023-07-20T07:37:35;101508.56;;;17.96;86.90
57568;BME280;43403;51.948;5.922;2023-07-20T07:40:22;101495.28;;;17.96;88.66
57568;BME280;43403;51.948;5.922;2023-07-20T07:42:49;101502.53;;;18.02;87.25
57568;BME280;43403;51.948;5.922;2023-07-20T07:45:16;101505.66;;;18.06;85.43
57568;BME280;43403;51.948;5.922;2023-07-20T07:47:43;101504.13;;;18.11;86.97
57568;BME280;43403;51.948;5.922;2023-07-20T07:50:10;101504.41;;;18.16;85.52
57568;BME280;43403;51.948;5.922;2023-07-20T07:52:36;101506.81;;;18.26;87.81
57568;BME280;43403;51.948;5.922;2023-07-20T07:55:04;101511.34;;;18.41;87.72
57568;BME280;43403;51.948;5.922;2023-07-20T07:57:30;101508.41;;;18.50;85.79
57568;BME280;43403;51.948;5.922;2023-07-20T07:59:57;101515.72;;;18.63;85.65
57568;BME280;43403;51.948;5.922;2023-07-20T08:02:23;101512.34;;;18.69;85.42
57568;BME280;43403;51.948;5.922;2023-07-20T08:04:50;101514.34;;;18.67;78.58
57568;BME280;43403;51.948;5.922;2023-07-20T08:07:18;101516.91;;;18.75;83.65
57568;BME280;43403;51.948;5.922;2023-07-20T08:09:45;101513.91;;;18.78;82.87
57568;BME280;43403;51.948;5.922;2023-07-20T08:12:11;101514.41;;;18.82;82.43
57568;BME280;43403;51.948;5.922;2023-07-20T08:14:39;101524.66;;;18.85;82.23
57568;BME280;43403;51.948;5.922;2023-07-20T08:17:06;101519.97;;;18.87;80.42
57568;BME280;43403;51.948;5.922;2023-07-20T08:19:32;101508.13;;;18.75;80.45
57568;BME280;43403;51.948;5.922;2023-07-20T08:21:59;101516.41;;;18.80;82.25
57568;BME280;43403;51.948;5.922;2023-07-20T08:24:26;101518.69;;;18.83;81.66
57568;BME280;43403;51.948;5.922;2023-07-20T08:26:52;101519.31;;;18.85;80.67
57568;BME280;43403;51.948;5.922;2023-07-20T08:29:19;101521.34;;;18.83;79.75
57568;BME280;43403;51.948;5.922;2023-07-20T08:31:45;101516.66;;;18.85;80.06
57568;BME280;43403;51.948;5.922;2023-07-20T08:34:12;101519.63;;;18.90;76.27
57568;BME280;43403;51.948;5.922;2023-07-20T08:36:55;101520.88;;;19.09;72.94
57568;BME280;43403;51.948;5.922;2023-07-20T08:39:22;101521.94;;;19.30;71.24
57568;BME280;43403;51.948;5.922;2023-07-20T08:41:49;101521.94;;;19.66;70.49
57568;BME280;43403;51.948;5.922;2023-07-20T08:44:15;101516.72;;;20.01;65.32
57568;BME280;43403;51.948;5.922;2023-07-20T08:46:42;101522.19;;;20.43;62.51
57568;BME280;43403;51.948;5.922;2023-07-20T08:49:11;101521.41;;;20.77;61.86
57568;BME280;43403;51.948;5.922;2023-07-20T08:51:38;101522.78;;;21.08;62.64
57568;BME280;43403;51.948;5.922;2023-07-20T08:54:06;101514.69;;;21.43;63.13
57568;BME280;43403;51.948;5.922;2023-07-20T08:56:34;101515.56;;;21.57;57.56
57568;BME280;43403;51.948;5.922;2023-07-20T08:59:01;101520.94;;;21.97;59.71
57568;BME280;43403;51.948;5.922;2023-07-20T09:01:28;101519.28;;;22.42;58.66
57568;BME280;43403;51.948;5.922;2023-07-20T09:03:56;101512.03;;;22.76;56.86
57568;BME280;43403;51.948;5.922;2023-07-20T09:06:22;101511.91;;;23.16;56.72
57568;BME280;43403;51.948;5.922;2023-07-20T09:08:50;101502.81;;;23.56;56.08
57568;BME280;43403;51.948;5.922;2023-07-20T09:11:17;101511.09;;;23.86;53.04
57568;BME280;43403;51.948;5.922;2023-07-20T09:13:43;101504.38;;;23.70;52.66
57568;BME280;43403;51.948;5.922;2023-07-20T09:16:13;101503.00;;;23.61;52.46
57568;BME280;43403;51.948;5.922;2023-07-20T09:18:41;101510.47;;;23.52;52.52
57568;BME280;43403;51.948;5.922;2023-07-20T09:21:08;101507.28;;;23.37;50.01
57568;BME280;43403;51.948;5.922;2023-07-20T09:23:36;101501.84;;;23.12;51.90
57568;BME280;43403;51.948;5.922;2023-07-20T09:26:10;101503.13;;;22.96;52.19
57568;BME280;43403;51.948;5.922;2023-07-20T09:28:47;101510.66;;;22.60;51.46
57568;BME280;43403;51.948;5.922;2023-07-20T09:31:19;101501.25;;;22.11;52.65
57568;BME280;43403;51.948;5.922;2023-07-20T09:33:47;101511.47;;;21.87;55.60
57568;BME280;43403;51.948;5.922;2023-07-20T09:36:16;101511.50;;;21.94;56.71
57568;BME280;43403;51.948;5.922;2023-07-20T09:39:04;101509.88;;;22.13;54.28
57568;BME280;43403;51.948;5.922;2023-07-20T09:41:39;101507.56;;;22.50;54.13
57568;BME280;43403;51.948;5.922;2023-07-20T09:44:10;101506.94;;;22.68;55.40
57568;BME280;43403;51.948;5.922;2023-07-20T09:46:47;101496.38;;;22.86;56.76
57568;BME280;43403;51.948;5.922;2023-07-20T09:49:17;101500.06;;;23.37;54.49
57568;BME280;43403;51.948;5.922;2023-07-20T09:51:47;101493.50;;;23.65;52.18
57568;BME280;43403;51.948;5.922;2023-07-20T09:54:13;101485.66;;;23.63;51.39
57568;BME280;43403;51.948;5.922;2023-07-20T09:56:41;101479.44;;;23.69;52.70
57568;BME280;43403;51.948;5.922;2023-07-20T09:59:08;101492.63;;;23.78;53.40
57568;BME280;43403;51.948;5.922;2023-07-20T10:01:36;101484.31;;;23.54;51.39
57568;BME280;43403;51.948;5.922;2023-07-20T10:04:07;101486.69;;;23.37;51.75
57568;BME280;43403;51.948;5.922;2023-07-20T10:06:36;101486.81;;;23.49;51.33
57568;BME280;43403;51.948;5.922;2023-07-20T10:09:06;101492.63;;;23.39;51.45
57568;BME280;43403;51.948;5.922;2023-07-20T10:11:35;101495.09;;;23.41;51.93
57568;BME280;43403;51.948;5.922;2023-07-20T10:14:03;101492.59;;;23.01;51.07
57568;BME280;43403;51.948;5.922;2023-07-20T10:16:36;101492.91;;;22.73;51.81
57568;BME280;43403;51.948;5.922;2023-07-20T10:19:27;101483.91;;;22.60;51.75
57568;BME280;43403;51.948;5.922;2023-07-20T10:22:03;101489.44;;;22.72;53.76
57568;BME280;43403;51.948;5.922;2023-07-20T10:24:35;101493.56;;;22.68;53.62
57568;BME280;43403;51.948;5.922;2023-07-20T10:27:03;101487.94;;;22.83;53.96
57568;BME280;43403;51.948;5.922;2023-07-20T10:29:31;101486.00;;;23.10;51.47
57568;BME280;43403;51.948;5.922;2023-07-20T10:31:58;101481.50;;;23.42;51.19
57568;BME280;43403;51.948;5.922;2023-07-20T10:34:25;101481.16;;;23.64;50.83
57568;BME280;43403;51.948;5.922;2023-07-20T10:36:51;101478.13;;;23.54;50.85
57568;BME280;43403;51.948;5.922;2023-07-20T10:39:25;101479.38;;;23.83;49.70
57568;BME280;43403;51.948;5.922;2023-07-20T10:42:02;101478.56;;;24.26;50.76
57568;BME280;43403;51.948;5.922;2023-07-20T10:44:30;101481.28;;;24.44;48.23
57568;BME280;43403;51.948;5.922;2023-07-20T10:47:00;101479.56;;;24.50;47.78
57568;BME280;43403;51.948;5.922;2023-07-20T10:49:28;101475.44;;;24.54;47.94
57568;BME280;43403;51.948;5.922;2023-07-20T10:51:59;101460.19;;;24.85;47.37
57568;BME280;43403;51.948;5.922;2023-07-20T10:56:55;101465.59;;;25.57;47.66
57568;BME280;43403;51.948;5.922;2023-07-20T11:01:55;101463.47;;;24.87;46.51
57568;BME280;43403;51.948;5.922;2023-07-20T11:07:04;101461.31;;;24.96;46.36
57568;BME280;43403;51.948;5.922;2023-07-20T11:09:38;101457.34;;;24.98;46.84
57568;BME280;43403;51.948;5.922;2023-07-20T11:12:23;101463.63;;;24.92;45.31
57568;BME280;43403;51.948;5.922;2023-07-20T11:14:57;101456.84;;;24.90;45.59
57568;BME280;43403;51.948;5.922;2023-07-20T11:17:31;101456.91;;;24.83;46.58
57568;BME280;43403;51.948;5.922;2023-07-20T11:20:02;101460.59;;;24.70;45.86
57568;BME280;43403;51.948;5.922;2023-07-20T11:22:32;101457.28;;;24.86;46.19
57568;BME280;43403;51.948;5.922;2023-07-20T11:24:58;101456.41;;;24.56;46.70
57568;BME280;43403;51.948;5.922;2023-07-20T11:27:25;101452.13;;;24.55;46.70
57568;BME280;43403;51.948;5.922;2023-07-20T11:29:52;101447.97;;;24.34;46.86
57568;BME280;43403;51.948;5.922;2023-07-20T11:32:23;101443.22;;;24.17;46.78
57568;BME280;43403;51.948;5.922;2023-07-20T11:34:50;101445.28;;;24.15;48.27
57568;BME280;43403;51.948;5.922;2023-07-20T11:37:17;101443.75;;;23.82;48.33
57568;BME280;43403;51.948;5.922;2023-07-20T11:39:44;101445.38;;;23.52;49.55
57568;BME280;43403;51.948;5.922;2023-07-20T11:42:11;101432.44;;;23.80;49.57
57568;BME280;43403;51.948;5.922;2023-07-20T11:44:39;101436.22;;;24.35;48.38
57568;BME280;43403;51.948;5.922;2023-07-20T11:47:12;101439.28;;;24.57;47.62
57568;BME280;43403;51.948;5.922;2023-07-20T11:49:41;101431.38;;;24.62;47.03
57568;BME280;43403;51.948;5.922;2023-07-20T11:52:14;101431.97;;;24.45;47.34
57568;BME280;43403;51.948;5.922;2023-07-20T11:54:46;101433.53;;;24.35;47.81
57568;BME280;43403;51.948;5.922;2023-07-20T11:57:18;101430.44;;;24.13;47.73
57568;BME280;43403;51.948;5.922;2023-07-20T12:00:01;101426.78;;;23.88;46.47
57568;BME280;43403;51.948;5.922;2023-07-20T12:02:30;101426.06;;;24.00;48.84
57568;BME280;43403;51.948;5.922;2023-07-20T12:04:57;101432.22;;;23.75;48.01
57568;BME280;43403;51.948;5.922;2023-07-20T12:07:26;101423.44;;;23.93;49.24
57568;BME280;43403;51.948;5.922;2023-07-20T12:10:07;101417.13;;;24.06;48.49
57568;BME280;43403;51.948;5.922;2023-07-20T12:12:35;101431.97;;;24.45;49.95
57568;BME280;43403;51.948;5.922;2023-07-20T12:15:17;101423.00;;;24.58;48.64
57568;BME280;43403;51.948;5.922;2023-07-20T12:17:49;101420.84;;;24.97;48.10
57568;BME280;43403;51.948;5.922;2023-07-20T12:23:12;101418.38;;;24.96;46.86
57568;BME280;43403;51.948;5.922;2023-07-20T12:25:40;101404.63;;;24.74;46.43
57568;BME280;43403;51.948;5.922;2023-07-20T12:28:08;101412.91;;;25.33;49.15
57568;BME280;43403;51.948;5.922;2023-07-20T12:30:36;101405.00;;;25.73;47.05
57568;BME280;43403;51.948;5.922;2023-07-20T12:33:03;101404.91;;;26.15;46.59
57568;BME280;43403;51.948;5.922;2023-07-20T12:35:31;101398.63;;;26.62;45.73
57568;BME280;43403;51.948;5.922;2023-07-20T12:37:58;101401.38;;;26.15;44.47
57568;BME280;43403;51.948;5.922;2023-07-20T12:40:25;101408.03;;;25.65;44.90
57568;BME280;43403;51.948;5.922;2023-07-20T12:42:51;101397.28;;;25.77;45.42
57568;BME280;43403;51.948;5.922;2023-07-20T12:45:18;101409.66;;;25.42;44.12
57568;BME280;43403;51.948;5.922;2023-07-20T12:47:45;101404.06;;;25.14;45.39
57568;BME280;43403;51.948;5.922;2023-07-20T12:50:11;101406.50;;;25.03;45.53
57568;BME280;43403;51.948;5.922;2023-07-20T12:52:39;101404.31;;;24.82;45.92
57568;BME280;43403;51.948;5.922;2023-07-20T12:55:07;101407.28;;;24.92;46.84
57568;BME280;43403;51.948;5.922;2023-07-20T12:57:35;101399.72;;;24.71;46.38
57568;BME280;43403;51.948;5.922;2023-07-20T13:00:04;101406.00;;;24.64;47.19
57568;BME280;43403;51.948;5.922;2023-07-20T13:02:32;101396.44;;;24.69;47.46
57568;BME280;43403;51.948;5.922;2023-07-20T13:04:59;101396.38;;;24.87;47.21
57568;BME280;43403;51.948;5.922;2023-07-20T13:07:38;101391.78;;;25.06;45.91
57568;BME280;43403;51.948;5.922;2023-07-20T13:10:10;101383.03;;;25.64;47.32